createdAt,value
2018-02-20T16:09:01.198Z,5.70
2018-02-20T16:11:29.541Z,5.60
2018-02-20T16:13:57.171Z,5.60
2018-02-20T16:16:24.834Z,5.50
2018-02-20T16:18:52.449Z,5.50
2018-02-20T16:21:21.509Z,5.40
2018-02-20T16:23:49.106Z,5.40
2018-02-20T16:26:16.703Z,5.30
2018-02-20T16:28:44.272Z,5.20
2018-02-20T16:31:11.864Z,5.10
2018-02-20T16:33:39.417Z,5.10
2018-02-20T16:36:07.008Z,5.00
2018-02-20T16:38:34.584Z,5.00
2018-02-20T16:41:03.022Z,4.90
2018-02-20T16:43:30.574Z,4.90
2018-02-20T16:45:58.178Z,4.90
2018-02-20T16:48:26.501Z,4.80
2018-02-20T16:50:54.110Z,4.80
2018-02-20T16:53:21.684Z,4.70
2018-02-20T16:55:50.054Z,4.60
2018-02-20T16:58:17.615Z,4.60
2018-02-20T17:00:45.918Z,4.50
2018-02-20T17:03:13.477Z,4.50
2018-02-20T17:05:41.891Z,4.40
2018-02-20T17:08:09.429Z,4.40
2018-02-20T17:10:37.438Z,4.30
2018-02-20T17:13:05.025Z,4.30
2018-02-20T17:15:33.369Z,4.20
2018-02-20T17:18:00.947Z,4.20
2018-02-20T17:20:28.506Z,4.10
2018-02-20T17:22:56.085Z,4.20
2018-02-20T17:25:24.448Z,4.10
2018-02-20T17:27:52.025Z,4.00
2018-02-20T17:30:20.354Z,4.00
2018-02-20T17:32:47.932Z,4.00
2018-02-20T17:35:15.557Z,4.00
2018-02-20T17:37:43.147Z,4.00
2018-02-20T17:40:10.885Z,4.00
2018-02-20T17:42:38.514Z,3.90
2018-02-20T17:45:06.846Z,4.00
2018-02-20T17:47:34.481Z,3.90
2018-02-20T17:50:02.062Z,3.90
2018-02-20T17:52:29.621Z,3.90
2018-02-20T17:54:57.201Z,3.80
2018-02-20T17:57:24.840Z,3.80
2018-02-20T17:59:52.486Z,3.80
2018-02-20T18:02:20.150Z,3.80
2018-02-20T18:04:47.736Z,3.70
2018-02-20T18:07:15.321Z,3.60
2018-02-20T18:09:43.089Z,3.60
2018-02-20T18:12:10.645Z,3.60
2018-02-20T18:14:39.748Z,3.50
2018-02-20T18:17:08.080Z,3.50
2018-02-20T18:19:35.669Z,3.50
2018-02-20T18:22:03.249Z,3.40
2018-02-20T18:24:30.821Z,3.40
2018-02-20T18:26:59.152Z,3.30
2018-02-20T18:29:26.748Z,3.30
2018-02-20T18:31:54.306Z,3.30
2018-02-20T18:34:21.886Z,3.20
2018-02-20T18:36:50.238Z,3.20
2018-02-20T18:39:17.961Z,3.20
2018-02-20T18:41:45.648Z,3.10
2018-02-20T18:44:13.225Z,3.00
2018-02-20T18:46:40.781Z,3.00
2018-02-20T18:49:08.360Z,3.00
2018-02-20T18:51:36.720Z,2.90
2018-02-20T18:54:04.290Z,2.90
2018-02-20T18:56:31.903Z,3.00
2018-02-20T18:58:59.583Z,2.90
2018-02-20T19:01:27.165Z,2.90
2018-02-20T19:03:54.750Z,2.80
2018-02-20T19:06:23.120Z,2.80
2018-02-20T19:08:51.602Z,2.80
2018-02-20T19:11:19.954Z,2.90
2018-02-20T19:13:47.589Z,2.80
2018-02-20T19:16:15.217Z,2.80
2018-02-20T19:18:42.782Z,2.80
2018-02-20T19:21:10.369Z,2.90
2018-02-20T19:23:37.945Z,2.80
2018-02-20T19:26:05.515Z,2.90
2018-02-20T19:28:33.138Z,2.90
2018-02-20T19:31:00.746Z,2.90
2018-02-20T19:33:28.427Z,2.80
2018-02-20T19:35:55.926Z,2.80
2018-02-20T19:38:23.634Z,2.80
2018-02-20T19:40:51.206Z,2.80
2018-02-20T19:43:19.623Z,2.70
2018-02-20T19:45:47.240Z,2.70
2018-02-20T19:48:14.830Z,2.70
2018-02-20T19:50:42.382Z,2.70
2018-02-20T19:53:10.750Z,2.60
2018-02-20T19:55:38.320Z,2.60
2018-02-20T19:58:06.665Z,2.60
2018-02-20T20:00:34.244Z,2.50
2018-02-20T20:03:01.831Z,2.60
2018-02-20T20:05:29.434Z,2.50
2018-02-20T20:07:57.070Z,2.60
2018-02-20T20:10:24.654Z,2.50
2018-02-20T20:12:52.248Z,2.50
2018-02-20T20:15:19.840Z,2.50
2018-02-20T20:17:47.407Z,2.50
2018-02-20T20:20:15.375Z,2.40
2018-02-20T20:22:42.922Z,2.30
2018-02-20T20:25:10.509Z,2.20
2018-02-20T20:27:38.086Z,2.10
2018-02-20T20:30:05.683Z,2.00
2018-02-20T20:32:33.259Z,2.00
2018-02-20T20:35:00.831Z,2.00
2018-02-20T20:37:28.427Z,2.00
2018-02-20T20:39:56.040Z,2.00
2018-02-20T20:42:24.403Z,1.70
2018-02-20T20:44:52.851Z,1.70
2018-02-20T20:47:20.543Z,1.60
2018-02-20T20:49:48.899Z,1.60
2018-02-20T20:52:16.493Z,1.60
2018-02-20T20:54:45.049Z,1.50
2018-02-20T20:57:12.683Z,1.50
2018-02-20T20:59:40.441Z,1.50
2018-02-20T21:02:08.035Z,1.50
2018-02-20T21:04:35.638Z,1.50
2018-02-20T21:07:03.222Z,1.50
2018-02-20T21:09:30.797Z,1.60
2018-02-20T21:11:59.185Z,1.60
2018-02-20T21:14:26.828Z,1.70
2018-02-20T21:16:54.390Z,1.80
2018-02-20T21:19:21.983Z,1.80
2018-02-20T21:21:51.575Z,1.70
2018-02-20T21:24:19.597Z,1.70
2018-02-20T21:26:47.940Z,1.70
2018-02-20T21:29:15.520Z,1.70
2018-02-20T21:31:43.993Z,1.70
2018-02-20T21:34:12.382Z,1.60
2018-02-20T21:36:40.732Z,1.60
2018-02-20T21:39:09.817Z,1.50
2018-02-20T21:41:37.389Z,1.50
2018-02-20T21:44:05.721Z,1.50
2018-02-20T21:46:33.393Z,1.50
2018-02-20T21:49:00.949Z,1.50
2018-02-20T21:51:28.553Z,1.50
2018-02-20T21:53:56.118Z,1.50
2018-02-20T21:56:23.773Z,1.50
2018-02-20T21:58:52.107Z,1.50
2018-02-20T22:01:19.770Z,1.40
2018-02-20T22:03:48.204Z,1.40
2018-02-20T22:06:15.882Z,1.50
2018-02-20T22:08:43.640Z,1.50
2018-02-20T22:11:13.247Z,1.50
2018-02-20T22:13:41.702Z,1.50
2018-02-20T22:16:09.838Z,1.50
2018-02-20T22:18:38.497Z,1.40
2018-02-20T22:21:07.220Z,1.30
2018-02-20T22:23:34.995Z,1.30
2018-02-20T22:26:04.615Z,1.30
2018-02-20T22:28:32.507Z,1.30
2018-02-20T22:31:00.294Z,1.30
2018-02-20T22:33:29.023Z,1.30
2018-02-20T22:35:56.781Z,1.30
2018-02-20T22:38:24.628Z,1.30
2018-02-20T22:41:01.456Z,1.20
2018-02-20T22:43:29.910Z,1.10
2018-02-20T22:45:57.556Z,1.00
2018-02-20T22:48:25.464Z,1.00
2018-02-20T22:50:57.839Z,1.00
2018-02-20T22:53:26.596Z,1.00
2018-02-20T22:55:54.841Z,1.00
2018-02-20T22:58:22.675Z,1.00
2018-02-20T23:00:50.429Z,1.00
2018-02-20T23:03:18.122Z,0.90
2018-02-20T23:05:45.776Z,0.80
2018-02-20T23:08:13.447Z,0.80
2018-02-20T23:10:41.201Z,0.80
2018-02-20T23:13:08.862Z,0.80
2018-02-20T23:15:37.283Z,0.80
2018-02-20T23:18:04.906Z,0.80
2018-02-20T23:20:33.329Z,0.70
2018-02-20T23:23:01.078Z,0.70
2018-02-20T23:25:30.528Z,0.70
2018-02-20T23:27:58.193Z,0.70
2018-02-20T23:30:25.876Z,0.60
2018-02-20T23:32:54.150Z,0.60
2018-02-20T23:35:21.830Z,0.60
2018-02-20T23:37:51.053Z,0.50
2018-02-20T23:40:18.623Z,0.50
2018-02-20T23:42:46.322Z,0.50
2018-02-20T23:45:14.237Z,0.60
2018-02-20T23:47:41.929Z,0.60
2018-02-20T23:50:09.633Z,0.60
2018-02-20T23:52:37.399Z,0.60
2018-02-20T23:55:05.187Z,0.50
2018-02-20T23:57:33.847Z,0.50
